WESTPORT MEDIA Westport In The Media

Enter your "Place, State", US Zip Code or ICAO:  

Nassau Airport, Bahamas

 Lat: 25.05N, Lon: 77.47W
ICAO Used: MYNN
Current Conditions
Updated: 11:00 AM GMT-5 WED JUL 30 2014
Sun & Moon Information
Mostly Cloudy
Mostly Cloudy
Temp: 31°C
Humidity: 58%
Wind Speed: SW 7 MPH
Barometer: 1017 mb
Dewpoint: 22°C
Heat Index: 33°C
Wind Chill: 31°C
Civil Twilight: 5:11 AM GMT-5 Moon Phase:
Waxing Crescent Moon
Sunrise: 5:36 AM GMT-5
Sunset: 6:55 PM GMT-5
Civil Twilight: 7:19 PM GMT-5
Forecast for Nassau Airport, Bahamas:
(Forecast based on TAF for )
0100 PM GMT-5 WED JUL 30 2014
  
AFTERNOON EVENING OVERNIGHT
Chance
Of
T-Storm
Fair
ZoneCast:
Dated: 0100 PM GMT-5 WED JUL 30 2014
Afternoon...A 30 percent chance of thunderstorms.

Evening...A percent chance of .

Overnight...A percent chance of fair. Becoming fair winds variable in direction at 2 mph.

Original Encoded TAF:
Dated: 0100 PM GMT-5 WED JUL 30 2014
MYNN 301530Z 3018/3118 22006KT 9999 FEW018CB SCT020 BKN250 
     PROB30 3018/3020 VCTS SCT015CB 
     BECMG 3100/3103 VRB02KT